Time;durP1;ratioP1;P1;durP2;ratioP2;P2;SDS_P1;SDS_P2;PMS_P1;PMS_P2;Temp;Humidity;BMP_temperature;BMP_pressure;BME280_temperature;BME280_humidity;BME280_pressure;Samples;Min_cycle;Max_cycle;Signal;HPM_P1;HPM_P2
2021/05/24 00:00:07;;;;;;;1333.63;999.90;;;;;;;7.07;100.00;101097.59;5031232;28;20922;-70
2021/05/24 00:02:34;;;;;;;1425.22;999.90;;;;;;;7.10;100.00;101103.69;5048554;28;20843;-70
2021/05/24 00:05:00;;;;;;;1411.75;999.90;;;;;;;7.11;100.00;101100.03;5048958;28;20413;-70
2021/05/24 00:07:26;;;;;;;1396.18;999.90;;;;;;;7.13;100.00;101092.69;5031111;28;20417;-70
2021/05/24 00:09:52;;;;;;;1423.95;999.90;;;;;;;7.18;100.00;101085.19;5048844;28;20417;-70
2021/05/24 00:12:25;;;;;;;1417.18;999.90;;;;;;;7.23;100.00;101089.44;5049045;28;20784;-71
2021/05/24 00:14:51;;;;;;;1447.83;999.90;;;;;;;7.31;100.00;101089.81;5048943;28;20409;-70
2021/05/24 00:17:17;;;;;;;1548.40;999.90;;;;;;;7.36;100.00;101091.31;5030859;28;20928;-70
2021/05/24 00:19:44;;;;;;;1374.60;999.90;;;;;;;7.32;100.00;101083.47;5051312;28;20919;-70
2021/05/24 00:22:09;;;;;;;1435.75;999.90;;;;;;;7.28;100.00;101084.63;5030747;28;20411;-70
2021/05/24 00:24:35;;;;;;;1456.38;999.90;;;;;;;7.25;100.00;101085.69;5048407;28;20800;-70
2021/05/24 00:27:01;;;;;;;1516.20;999.90;;;;;;;7.16;100.00;101081.72;5048823;28;20462;-70
2021/05/24 00:29:27;;;;;;;1495.72;999.90;;;;;;;7.09;100.00;101085.75;5048485;28;20862;-70
2021/05/24 00:31:54;;;;;;;1486.60;999.90;;;;;;;7.01;100.00;101085.34;5048797;28;20421;-70
2021/05/24 00:34:20;;;;;;;1510.70;999.90;;;;;;;6.92;100.00;101073.31;5048441;28;20421;-70
2021/05/24 00:36:47;;;;;;;1592.30;999.90;;;;;;;6.82;100.00;101075.66;5030772;28;20892;-70
2021/05/24 00:39:13;;;;;;;1582.45;999.90;;;;;;;6.72;100.00;101076.31;5049874;28;20454;-70
2021/05/24 00:41:41;;;;;;;1396.70;999.90;;;;;;;6.59;100.00;101077.03;5052430;28;20781;-70
2021/05/24 00:44:07;;;;;;;1464.63;999.90;;;;;;;6.50;100.00;101066.78;5034457;28;20425;-70
2021/05/24 00:46:34;;;;;;;1418.78;999.90;;;;;;;6.38;100.00;101060.28;5052372;28;20425;-70
2021/05/24 00:49:00;;;;;;;1482.05;999.90;;;;;;;6.29;100.00;101058.97;5052265;28;20943;-70
2021/05/24 00:51:26;;;;;;;1461.72;999.90;;;;;;;6.22;100.00;101052.22;5034225;28;20795;-70
2021/05/24 00:53:55;;;;;;;1464.65;999.90;;;;;;;6.14;100.00;101051.78;5051969;28;20425;-70
2021/05/24 00:56:22;;;;;;;1353.47;999.90;;;;;;;6.07;100.00;101047.72;5034169;28;20431;-70
2021/05/24 00:58:48;;;;;;;1342.05;999.90;;;;;;;6.01;100.00;101046.22;5052098;28;20409;-71
2021/05/24 01:01:14;;;;;;;1400.00;999.90;;;;;;;5.94;100.00;101044.81;5034192;28;20904;-70
2021/05/24 01:03:40;;;;;;;1461.78;999.90;;;;;;;5.86;100.00;101039.84;5051999;28;20429;-70
2021/05/24 01:06:06;;;;;;;1438.18;999.90;;;;;;;5.82;100.00;101036.47;5052002;28;20447;-70
2021/05/24 01:08:32;;;;;;;1399.40;999.90;;;;;;;5.77;100.00;101035.88;5051836;28;20417;-70
2021/05/24 01:10:59;;;;;;;1389.70;999.90;;;;;;;5.72;100.00;101040.66;5051745;28;20516;-70
2021/05/24 01:13:25;;;;;;;1308.32;999.90;;;;;;;5.70;100.00;101039.84;5051355;28;20417;-70
2021/05/24 01:15:51;;;;;;;1289.15;999.90;;;;;;;5.66;100.00;101038.28;5051977;28;20476;-70
2021/05/24 01:18:17;;;;;;;1356.93;999.90;;;;;;;5.62;100.00;101031.31;5051660;28;20417;-70
2021/05/24 01:20:43;;;;;;;1247.00;999.90;;;;;;;5.73;100.00;101028.03;5051837;28;20445;-70
2021/05/24 01:23:11;;;;;;;1318.97;999.90;;;;;;;5.77;100.00;101025.09;5051517;28;20821;-70
2021/05/24 01:25:40;;;;;;;1300.60;999.90;;;;;;;5.84;100.00;101022.94;5051618;28;20857;-70
2021/05/24 01:28:08;;;;;;;1391.93;999.90;;;;;;;5.82;100.00;101027.50;5051328;28;20486;-70
2021/05/24 01:30:35;;;;;;;1332.07;999.90;;;;;;;5.84;100.00;101021.09;5051228;28;20429;-70
2021/05/24 01:33:01;;;;;;;1451.20;999.90;;;;;;;5.93;100.00;101024.22;5051298;28;20417;-69
2021/05/24 01:35:27;;;;;;;1361.82;999.90;;;;;;;6.10;100.00;101024.13;5051133;28;20466;-70
2021/05/24 01:37:53;;;;;;;1999.90;999.90;;;;;;;6.29;100.00;101031.16;5051385;28;20472;-70
2021/05/24 01:40:22;;;;;;;1953.00;999.90;;;;;;;6.53;100.00;101032.44;5050993;28;20835;-70
2021/05/24 01:42:48;;;;;;;1999.90;999.90;;;;;;;6.68;100.00;101021.66;5051242;28;20496;-70
2021/05/24 01:45:15;;;;;;;1999.90;999.90;;;;;;;6.84;100.00;101027.88;5050674;28;20448;-70
2021/05/24 01:47:43;;;;;;;1999.90;999.90;;;;;;;6.95;100.00;101024.53;5050660;28;20470;-70
2021/05/24 01:50:10;;;;;;;1999.90;999.90;;;;;;;7.03;100.00;101029.47;5050855;28;20866;-70
2021/05/24 01:52:36;;;;;;;1999.90;999.90;;;;;;;7.11;100.00;101032.53;5050423;28;20475;-70
2021/05/24 01:55:04;;;;;;;1999.90;999.90;;;;;;;7.16;100.00;101033.13;5050991;28;20421;-70
2021/05/24 01:57:30;;;;;;;1882.15;999.90;;;;;;;7.18;100.00;101025.78;5050704;28;20421;-70
2021/05/24 01:59:56;;;;;;;1718.03;999.90;;;;;;;7.16;100.00;101019.63;5032721;28;20417;-70
2021/05/24 02:02:22;;;;;;;1999.90;999.90;;;;;;;7.17;100.00;101021.34;5050843;28;20666;-70
2021/05/24 02:04:48;;;;;;;1999.90;999.90;;;;;;;7.18;100.00;101020.38;5032471;28;20429;-70
2021/05/24 02:07:14;;;;;;;1999.90;999.90;;;;;;;7.14;100.00;101020.69;5050328;28;20432;-70
2021/05/24 02:09:41;;;;;;;1999.90;999.90;;;;;;;7.15;100.00;101015.19;5050401;28;20421;-70
2021/05/24 02:12:07;;;;;;;1999.90;999.90;;;;;;;7.16;100.00;101011.53;5050761;28;20785;-70
2021/05/24 02:14:34;;;;;;;1565.82;999.90;;;;;;;7.16;100.00;101013.34;5050800;28;20908;-70
2021/05/24 02:17:00;;;;;;;1986.65;999.90;;;;;;;7.15;100.00;101009.78;5050535;28;20483;-70
2021/05/24 02:19:26;;;;;;;1999.90;999.90;;;;;;;7.22;100.00;101017.53;5050772;28;20428;-70
2021/05/24 02:21:52;;;;;;;1999.90;999.90;;;;;;;7.28;100.00;101019.81;5052910;28;20441;-70
2021/05/24 02:24:18;;;;;;;1999.90;999.90;;;;;;;7.28;100.00;101012.59;5032500;28;20851;-70
2021/05/24 02:26:45;;;;;;;1893.30;999.90;;;;;;;7.27;100.00;101018.97;5050186;28;20417;-71
2021/05/24 02:29:12;;;;;;;1999.90;999.90;;;;;;;7.24;100.00;101019.13;5015953;28;20444;-70
2021/05/24 02:31:39;;;;;;;1999.90;999.90;;;;;;;7.23;100.00;101011.13;5050207;28;20535;-70
2021/05/24 02:34:07;;;;;;;1999.90;999.90;;;;;;;7.19;100.00;101008.63;5031956;28;20445;-70
2021/05/24 02:36:33;;;;;;;1700.13;999.90;;;;;;;7.15;100.00;101008.94;5050246;28;20762;-70
2021/05/24 02:39:01;;;;;;;1999.90;999.90;;;;;;;7.14;100.00;101005.34;5050171;28;20420;-70
2021/05/24 02:41:27;;;;;;;1615.75;999.90;;;;;;;7.10;100.00;101005.66;5050055;28;20417;-70
2021/05/24 02:43:52;;;;;;;1999.90;999.90;;;;;;;7.01;100.00;100986.34;5050141;28;20482;-70
2021/05/24 02:46:19;;;;;;;1999.90;999.90;;;;;;;6.99;100.00;100993.69;5049567;28;20506;-70
2021/05/24 02:48:45;;;;;;;1923.60;999.90;;;;;;;7.03;100.00;100994.38;5050274;28;20416;-70
2021/05/24 02:51:11;;;;;;;1999.90;999.90;;;;;;;7.04;100.00;100996.97;5049743;28;20793;-70
2021/05/24 02:53:37;;;;;;;1999.90;999.90;;;;;;;7.09;100.00;100988.56;5049643;28;20516;-70
2021/05/24 02:56:04;;;;;;;1789.47;999.90;;;;;;;7.10;100.00;100994.84;5050036;28;20429;-70
2021/05/24 02:58:30;;;;;;;1776.88;999.90;;;;;;;7.10;100.00;100994.84;5049603;28;20467;-70
2021/05/24 03:00:56;;;;;;;1876.67;999.90;;;;;;;7.06;100.00;100994.16;5049900;28;20417;-70
2021/05/24 03:03:24;;;;;;;1985.15;999.90;;;;;;;7.01;100.00;100996.28;5052159;28;20421;-70
2021/05/24 03:05:51;;;;;;;1999.90;999.90;;;;;;;6.97;100.00;100989.34;5031704;28;20417;-70
2021/05/24 03:08:17;;;;;;;1554.38;999.90;;;;;;;6.95;100.00;100985.84;5061796;28;20408;-70
2021/05/24 03:10:42;;;;;;;1933.70;999.90;;;;;;;6.93;100.00;100998.59;5069270;28;20832;-70
2021/05/24 03:13:09;;;;;;;1509.53;999.90;;;;;;;6.89;100.00;100992.50;5062618;28;20518;-70
2021/05/24 03:15:35;;;;;;;1999.90;999.90;;;;;;;6.85;100.00;100999.94;5068250;28;20423;-70
2021/05/24 03:18:01;;;;;;;1999.90;999.90;;;;;;;6.87;100.00;100995.31;5069606;28;20427;-70
2021/05/24 03:20:27;;;;;;;1695.82;999.90;;;;;;;6.87;100.00;101006.09;5068840;28;20423;-70
2021/05/24 03:22:54;;;;;;;1699.40;999.90;;;;;;;6.87;100.00;101010.63;5068605;28;20419;-70
2021/05/24 03:25:20;;;;;;;1999.90;999.90;;;;;;;6.84;100.00;101003.59;5034413;28;20427;-70
2021/05/24 03:27:47;;;;;;;1999.90;999.90;;;;;;;6.86;100.00;101004.34;5032267;28;20417;-70
2021/05/24 03:30:14;;;;;;;1686.37;999.90;;;;;;;6.88;100.00;101015.03;5049178;28;20602;-70
2021/05/24 03:32:41;;;;;;;1999.90;999.90;;;;;;;6.89;100.00;101010.53;5049332;28;20425;-70
2021/05/24 03:35:09;;;;;;;1999.90;999.90;;;;;;;6.87;100.00;101010.63;5031364;28;20424;-70
2021/05/24 03:37:35;;;;;;;1999.90;999.90;;;;;;;6.90;100.00;101009.59;5049073;28;20961;-70
2021/05/24 03:40:04;;;;;;;1999.90;999.90;;;;;;;6.89;100.00;101014.09;5030773;28;20432;-70
2021/05/24 03:42:30;;;;;;;1999.90;999.90;;;;;;;6.92;100.00;101018.44;5049372;28;20911;-70
2021/05/24 03:44:56;;;;;;;1999.90;999.90;;;;;;;6.92;100.00;101013.03;5049042;28;20421;-70
2021/05/24 03:47:21;;;;;;;1999.90;999.90;;;;;;;6.94;100.00;101019.22;5031102;28;20491;-70
2021/05/24 03:49:47;;;;;;;1620.82;999.90;;;;;;;6.93;100.00;101012.09;5049017;28;20496;-70
2021/05/24 03:52:15;;;;;;;1999.90;999.90;;;;;;;6.94;100.00;101011.13;5030878;28;20460;-70
2021/05/24 03:54:41;;;;;;;1999.90;999.90;;;;;;;6.98;100.00;101018.06;5049102;28;20780;-71
2021/05/24 03:57:09;;;;;;;1999.90;999.90;;;;;;;7.03;100.00;101011.41;5049036;28;20423;-71
2021/05/24 03:59:36;;;;;;;1999.90;999.90;;;;;;;7.09;100.00;101009.31;5048568;28;20515;-71
2021/05/24 04:02:02;;;;;;;1538.47;999.90;;;;;;;7.14;100.00;101002.66;5049251;28;20490;-71
2021/05/24 04:04:29;;;;;;;1641.55;999.90;;;;;;;7.22;100.00;101017.53;5048473;28;20520;-71
2021/05/24 04:06:57;;;;;;;1999.90;999.90;;;;;;;7.27;100.00;101010.88;5048840;28;20885;-71
2021/05/24 04:09:24;;;;;;;1999.90;999.90;;;;;;;7.35;100.00;101004.97;5048537;28;20478;-71
2021/05/24 04:11:50;;;;;;;1160.30;993.80;;;;;;;7.27;100.00;101012.66;5032229;28;20045;-70
2021/05/24 04:14:17;;;;;;;1396.20;999.90;;;;;;;7.30;100.00;101023.31;5051541;28;20417;-71
2021/05/24 04:16:43;;;;;;;1065.30;953.70;;;;;;;7.33;100.00;101018.56;5053864;28;20064;-71
2021/05/24 04:19:11;;;;;;;1450.30;999.90;;;;;;;7.40;100.00;101018.19;5036405;28;20053;-70
2021/05/24 04:21:37;;;;;;;1952.82;999.90;;;;;;;7.62;100.00;101021.25;5052500;28;20409;-71
2021/05/24 04:24:03;;;;;;;1999.90;999.90;;;;;;;7.77;100.00;101015.81;5055325;28;20457;-71
2021/05/24 04:26:29;;;;;;;1720.00;999.90;;;;;;;7.88;100.00;101011.47;5034736;28;20451;-74
2021/05/24 04:28:55;;;;;;;1999.90;999.90;;;;;;;7.99;100.00;101005.34;5052575;28;20413;-73
2021/05/24 04:31:23;;;;;;;1999.90;999.90;;;;;;;8.11;100.00;101003.69;5052282;28;20421;-74
2021/05/24 04:33:49;;;;;;;1999.90;999.90;;;;;;;8.23;100.00;100998.41;5034402;28;20420;-74
2021/05/24 04:36:15;;;;;;;1516.90;999.90;;;;;;;8.35;100.00;101002.97;5052366;28;20417;-74
2021/05/24 04:38:41;;;;;;;1999.90;999.90;;;;;;;8.47;100.00;101004.03;5034283;28;20918;-74
2021/05/24 04:41:07;;;;;;;1767.28;999.90;;;;;;;8.59;100.00;101003.22;5052563;28;20492;-69
2021/05/24 04:43:35;;;;;;;1999.90;999.90;;;;;;;8.69;100.00;100995.31;5052169;28;20421;-69
2021/05/24 04:46:01;;;;;;;1387.43;999.90;;;;;;;8.60;100.00;101004.91;5053401;28;20431;-69
2021/05/24 04:48:27;;;;;;;1999.90;999.90;;;;;;;8.68;100.00;101007.09;5053678;28;20055;-69
2021/05/24 04:50:54;;;;;;;1999.90;999.90;;;;;;;8.72;100.00;100995.09;5053346;28;20106;-69
2021/05/24 04:53:20;;;;;;;1999.90;999.90;;;;;;;8.80;100.00;100998.13;5019211;28;20420;-69
2021/05/24 04:55:46;;;;;;;1999.90;999.90;;;;;;;8.87;100.00;100996.75;5053506;28;20120;-69
2021/05/24 04:58:12;;;;;;;1352.80;999.90;;;;;;;8.95;100.00;100993.50;5053246;28;20053;-69
2021/05/24 05:00:38;;;;;;;1999.90;999.90;;;;;;;9.02;100.00;100983.97;5053360;28;20198;-69
2021/05/24 05:03:06;;;;;;;1999.90;999.90;;;;;;;9.11;100.00;100987.84;5053801;28;20140;-68
2021/05/24 05:05:34;;;;;;;1999.90;999.90;;;;;;;9.20;100.00;100989.91;5038172;28;20464;-69
2021/05/24 05:08:00;;;;;;;1999.13;999.90;;;;;;;9.29;100.00;100991.09;5053256;28;20120;-68
2021/05/24 05:10:26;;;;;;;1999.90;999.90;;;;;;;9.38;100.00;100990.44;5070256;28;20506;-69
2021/05/24 05:12:52;;;;;;;1999.90;999.90;;;;;;;9.48;100.00;100982.50;5053645;28;20051;-68
2021/05/24 05:15:18;;;;;;;1996.78;999.90;;;;;;;9.68;100.00;100988.31;5072881;28;20048;-69
2021/05/24 05:17:44;;;;;;;1999.90;999.90;;;;;;;9.81;100.00;100983.72;5072520;28;20159;-69
2021/05/24 05:20:12;;;;;;;1999.90;999.90;;;;;;;9.90;100.00;100984.91;5071658;28;20131;-69
2021/05/24 05:22:39;;;;;;;1489.07;999.90;;;;;;;10.00;100.00;100985.94;5052872;28;20049;-69
2021/05/24 05:25:06;;;;;;;1506.60;999.90;;;;;;;10.18;100.00;100985.53;5061651;28;20056;-68
2021/05/24 05:27:32;;;;;;;1999.90;999.90;;;;;;;10.31;100.00;100994.47;5067351;28;20502;-68
2021/05/24 05:29:58;;;;;;;1999.90;999.90;;;;;;;10.27;100.00;100994.81;5056921;28;20040;-68
2021/05/24 05:32:24;;;;;;;1999.90;999.90;;;;;;;10.40;100.00;100992.09;5052860;28;20048;-69
2021/05/24 05:34:50;;;;;;;1787.03;999.90;;;;;;;10.47;100.00;100998.75;5053710;28;20040;-68
2021/05/24 05:37:17;;;;;;;1999.90;999.90;;;;;;;10.58;100.00;101000.66;5055297;28;20483;-69
2021/05/24 05:39:45;;;;;;;1999.90;999.90;;;;;;;10.70;100.00;100999.69;5053599;28;20096;-69
2021/05/24 05:42:11;;;;;;;1999.90;999.90;;;;;;;11.04;100.00;100997.06;5033774;28;20417;-69
2021/05/24 05:44:37;;;;;;;1999.90;999.90;;;;;;;11.33;100.00;100992.03;5053135;28;20929;-68
2021/05/24 05:47:03;;;;;;;1999.90;999.90;;;;;;;11.56;100.00;100989.31;5071077;28;20418;-69
2021/05/24 05:49:28;;;;;;;1999.90;999.90;;;;;;;11.74;100.00;100986.94;5063723;28;20429;-68
2021/05/24 05:51:54;;;;;;;1999.90;999.90;;;;;;;12.01;100.00;100989.28;5032939;28;20429;-69
2021/05/24 05:54:20;;;;;;;1999.90;999.90;;;;;;;12.31;100.00;100987.69;5039230;28;20420;-68
2021/05/24 05:56:47;;;;;;;1999.90;999.90;;;;;;;12.63;100.00;100985.94;5069262;28;20427;-68
2021/05/24 05:59:13;;;;;;;1999.90;999.90;;;;;;;13.00;100.00;100990.91;5065568;28;20521;-68
2021/05/24 06:01:39;;;;;;;1999.90;999.90;;;;;;;13.36;100.00;100984.13;5045151;28;20504;-68
2021/05/24 06:04:06;;;;;;;1999.90;999.90;;;;;;;13.81;100.00;100977.38;5054113;28;20427;-68
2021/05/24 06:06:32;;;;;;;1999.90;999.90;;;;;;;14.36;100.00;100982.34;5065703;28;20771;-68
2021/05/24 06:08:57;;;;;;;1999.90;999.90;;;;;;;14.70;100.00;100981.06;5052034;28;20434;-68
2021/05/24 06:11:23;;;;;;;1999.90;999.90;;;;;;;14.32;100.00;100985.50;5071788;28;20062;-68
2021/05/24 06:13:50;;;;;;;1999.90;999.90;;;;;;;15.39;100.00;100992.69;5070963;28;20787;-68
2021/05/24 06:16:16;;;;;;;1999.90;999.90;;;;;;;16.36;100.00;100976.75;5068513;28;20411;-69
2021/05/24 06:18:42;;;;;;;1999.90;999.90;;;;;;;16.63;100.00;100981.28;5057255;28;20861;-70
2021/05/24 06:21:08;;;;;;;1999.90;999.90;;;;;;;16.88;100.00;100986.97;5052740;28;20424;-69
2021/05/24 06:23:34;;;;;;;1999.90;999.90;;;;;;;17.32;100.00;100980.59;5057211;28;20837;-69
2021/05/24 06:26:00;;;;;;;1999.90;999.90;;;;;;;17.53;100.00;100986.53;5054470;28;20431;-69
2021/05/24 06:28:26;;;;;;;1999.90;999.90;;;;;;;17.41;100.00;100982.38;5070876;28;20480;-69
2021/05/24 06:30:52;;;;;;;1999.90;999.90;;;;;;;17.11;100.00;100991.97;5070330;28;20496;-69
2021/05/24 06:33:18;;;;;;;1999.90;999.90;;;;;;;17.33;100.00;100987.78;5029717;28;20839;-68
2021/05/24 06:35:44;;;;;;;1999.90;999.90;;;;;;;16.83;100.00;100987.41;5050627;28;20041;-69
2021/05/24 06:38:10;;;;;;;1999.90;999.90;;;;;;;17.03;100.00;100985.38;5051686;28;20556;-69
2021/05/24 06:40:36;;;;;;;1999.90;999.90;;;;;;;16.71;100.00;100985.97;5051452;28;20098;-69
2021/05/24 06:43:02;;;;;;;;;;;;;;;15.72;100.00;100974.81;5052028;28;20535;-69
2021/05/24 06:45:28;;;;;;;;;;;;;;;16.22;100.00;100969.94;5034186;28;19955;-69
2021/05/24 06:47:55;;;;;;;;;;;;;;;16.20;100.00;100978.31;5052129;28;19932;-69
2021/05/24 06:50:20;;;;;;;;;;;;;;;16.67;100.00;100979.94;5051880;28;19927;-69
2021/05/24 06:52:46;;;;;;;;;;;;;;;16.17;100.00;100969.56;5051470;28;19920;-69
2021/05/24 06:55:12;;;;;;;;;;;;;;;16.34;100.00;100967.81;5050745;28;19954;-69
2021/05/24 06:57:38;;;;;;;;;;;;;;;16.79;100.00;100983.28;5051643;28;19921;-69
2021/05/24 07:00:06;;;;;;;;;;;;;;;16.74;100.00;100977.41;5051736;28;19920;-68
2021/05/24 07:02:32;;;;;;;;;;;;;;;16.79;100.00;100972.31;5051896;28;19928;-68
2021/05/24 07:04:59;;;;;;;;;;;;;;;16.82;100.00;100980.25;5051335;28;19921;-68
2021/05/24 07:07:24;;;;;;;;;;;;;;;17.07;100.00;100973.06;5051547;28;19986;-68
2021/05/24 07:09:50;;;;;;;;;;;;;;;17.89;100.00;100969.00;5051211;28;19928;-68
2021/05/24 07:12:16;;;;;;;;;;;;;;;18.17;100.00;100966.88;5051698;28;19943;-68
2021/05/24 07:14:45;;;;;;;;;;;;;;;17.94;100.00;100971.28;5051467;28;19931;-68
2021/05/24 07:17:11;;;;;;;;;;;;;;;18.42;98.47;100968.81;5051238;28;19924;-68
2021/05/24 07:19:37;;;;;;;;;;;;;;;18.63;100.00;100966.41;5051497;28;20373;-68
2021/05/24 07:22:03;;;;;;;;;;;;;;;19.23;96.43;100954.16;5051266;28;19924;-68
2021/05/24 07:24:29;;;;;;;;;;;;;;;19.63;94.03;100942.31;5051361;28;19975;-68
2021/05/24 07:26:55;;;;;;;;;;;;;;;19.62;89.79;100940.59;5051481;28;19920;-68
2021/05/24 07:29:21;;;;;;;;;;;;;;;18.87;86.88;100949.03;5050919;28;19931;-68
2021/05/24 07:31:47;;;;;;;;;;;;;;;19.54;89.58;100939.59;5051300;28;20027;-68
2021/05/24 07:34:13;;;;;;;;;;;;;;;19.78;87.06;100945.19;5050996;28;19920;-68
2021/05/24 07:36:38;;;;;;;;;;;;;;;20.15;80.45;100935.31;5051321;28;19921;-69
2021/05/24 07:39:05;;;;;;;;;;;;;;;19.69;76.57;100931.41;5051039;28;20330;-68
2021/05/24 07:41:31;;;;;;;;;;;;;;;20.15;81.13;100927.06;5051212;28;20415;-68
2021/05/24 07:43:57;;;;;;;;;;;;;;;20.00;74.54;100918.72;5049826;28;19921;-69
2021/05/24 07:46:23;;;;;;;;;;;;;;;20.03;70.96;100913.72;5050691;28;19921;-68
2021/05/24 07:48:49;;;;;;;;;;;;;;;19.32;65.94;100901.84;5050798;28;19924;-68
2021/05/24 07:51:15;;;;;;;;;;;;;;;19.47;75.57;100908.31;5050820;28;19991;-68
2021/05/24 07:53:40;;;;;;;;;;;;;;;19.41;77.18;100920.03;5051017;28;19925;-69
2021/05/24 07:56:07;;;;;;;;;;;;;;;20.15;68.22;100916.91;5051190;28;20384;-68
2021/05/24 07:58:33;;;;;;;;;;;;;;;20.10;67.83;100919.34;5050558;28;20312;-69
2021/05/24 08:00:59;;;;;;;;;;;;;;;20.11;66.00;100910.06;5050698;28;19921;-68
2021/05/24 08:03:25;;;;;;;;;;;;;;;20.36;65.58;100916.25;5032550;28;19948;-68
2021/05/24 08:05:50;;;;;;;;;;;;;;;20.24;60.46;100918.56;5050137;28;20356;-69
2021/05/24 08:08:16;;;;;;;;;;;;;;;20.70;61.97;100903.91;5050739;28;20376;-68
2021/05/24 08:10:42;;;;;;;;;;;;;;;20.51;60.03;100915.41;5050593;28;19924;-69
2021/05/24 08:13:09;;;;;;;;;;;;;;;20.34;58.46;100911.94;5050859;28;19920;-76
2021/05/24 08:15:34;;;;;;;;;;;;;;;20.72;58.91;100898.19;5050753;28;19920;-76
2021/05/24 08:18:01;;;;;;;;;;;;;;;20.36;55.12;100907.09;5050671;28;19921;-77
2021/05/24 08:20:27;;;;;;;;;;;;;;;20.60;56.73;100905.19;5032961;28;20402;-77
2021/05/24 08:22:53;;;;;;;;;;;;;;;19.98;59.16;100899.63;5033103;28;19921;-77
2021/05/24 08:25:19;;;;;;;;;;;;;;;20.68;57.83;100905.09;5061857;28;19967;-77
2021/05/24 08:27:45;;;;;;;;;;;;;;;20.22;52.29;100893.06;5050387;28;19928;-76
2021/05/24 08:30:12;;;;;;;;;;;;;;;19.97;54.24;100884.13;5070726;28;19921;-75
2021/05/24 08:32:38;;;;;;;;;;;;;;;20.66;52.09;100896.16;5069738;28;19927;-77
2021/05/24 08:35:05;;;;;;;;;;;;;;;21.00;53.10;100894.81;5035609;28;20032;-76
2021/05/24 08:37:30;;;;;;;;;;;;;;;19.89;51.16;100892.47;5057578;28;19975;-73
2021/05/24 08:39:56;;;;;;;;;;;;;;;20.51;52.22;100883.19;5052633;28;20007;-74
2021/05/24 08:42:25;;;;;;;;;;;;;;;20.22;51.75;100882.06;5051502;28;19928;-74
2021/05/24 08:44:51;;;;;;;;;;;;;;;20.87;50.42;100882.53;5050158;28;19921;-75
2021/05/24 08:47:21;;;;;;;;;;;;;;;21.18;48.27;100877.88;5049943;28;19951;-75
2021/05/24 08:49:47;;;;;;;;;;;;;;;21.36;48.04;100870.03;5050371;28;19921;-74
2021/05/24 08:52:14;;;;;;;;;;;;;;;20.18;48.80;100872.44;5032028;28;19920;-75
2021/05/24 08:54:40;;;;;;;;;;;;;;;19.40;49.70;100868.75;5050053;28;20027;-74
2021/05/24 08:57:05;;;;;;;;;;;;;;;20.58;50.98;100875.88;5050059;28;20388;-75
2021/05/24 08:59:31;;;;;;;;;;;;;;;19.85;49.38;100858.91;5049820;28;19920;-74
2021/05/24 09:01:57;;;;;;;;;;;;;;;20.19;50.23;100862.25;5052878;28;19931;-75
2021/05/24 09:04:38;;;;;;;;;;;;;;;19.73;52.06;100863.09;5053568;28;19927;-74
2021/05/24 09:07:04;;;;;;;;;;;;;;;20.25;49.71;100853.28;5053867;28;20372;-74
2021/05/24 09:09:30;;;;;;;;;;;;;;;19.40;50.12;100852.25;5035547;28;19928;-75
2021/05/24 09:11:56;;;;;;;;;;;;;;;19.14;49.65;100858.06;5053830;28;20311;-75
2021/05/24 09:14:24;;;;;;;;;;;;;;;19.65;47.79;100850.22;5053722;28;20000;-75
2021/05/24 09:16:54;;;;;;;;;;;;;;;20.79;45.69;100843.13;5053150;28;20034;-74
2021/05/24 09:19:20;;;;;;;;;;;;;;;21.72;43.38;100846.28;5053579;28;19924;-75
2021/05/24 09:21:51;;;;;;;;;;;;;;;21.14;43.09;100841.53;5053173;28;19921;-75
2021/05/24 09:24:23;;;;;;;1999.90;999.90;;;;;;;19.80;47.29;100833.81;5052984;28;20058;-76
2021/05/24 09:26:51;;;;;;;1999.90;999.90;;;;;;;19.46;50.85;100835.03;5053004;28;20049;-76
2021/05/24 09:29:22;;;;;;;1001.72;813.10;;;;;;;19.22;51.43;100828.59;5052908;28;20045;-75
2021/05/24 09:31:48;;;;;;;1999.90;999.90;;;;;;;18.93;51.22;100833.88;5052909;28;20045;-75
2021/05/24 09:34:21;;;;;;;1999.90;999.90;;;;;;;18.85;50.55;100824.63;5052365;28;20060;-75
2021/05/24 09:37:00;;;;;;;1786.00;996.60;;;;;;;18.89;51.98;100822.38;5035049;28;20061;-75
2021/05/24 09:39:31;;;;;;;1305.78;918.80;;;;;;;18.99;52.09;100830.44;5052424;28;20493;-74
2021/05/24 09:42:00;;;;;;;883.28;800.70;;;;;;;18.98;53.62;100826.81;5052866;28;20041;-74
2021/05/24 09:44:26;;;;;;;;;;;;;;;18.71;51.80;100825.34;5052961;28;20045;-74
2021/05/24 09:46:52;;;;;;;;;;;;;;;18.42;50.43;100832.25;5052950;28;19921;-74
2021/05/24 09:49:22;;;;;;;1999.90;999.90;;;;;;;18.65;53.73;100812.28;5052443;28;20035;-75
2021/05/24 09:51:50;;;;;;;1999.90;999.90;;;;;;;18.83;49.80;100812.91;5033030;28;20468;-74
2021/05/24 09:54:18;;;;;;;1999.90;999.90;;;;;;;18.88;49.73;100807.78;5050646;28;20413;-74
2021/05/24 09:56:46;;;;;;;;;;;;;;;18.62;50.93;100808.00;5052630;28;20100;-74
2021/05/24 09:59:13;;;;;;;;;;;;;;;18.52;52.55;100805.44;5052925;28;19924;-74
2021/05/24 10:01:41;;;;;;;;;;;;;;;18.58;55.24;100804.72;5053203;28;19920;-74
2021/05/24 10:04:08;;;;;;;;;;;;;;;18.36;54.21;100802.75;5052768;28;19967;-74
2021/05/24 10:06:34;;;;;;;;;;;;;;;18.28;53.48;100783.50;5052973;28;19963;-74
2021/05/24 10:09:00;;;;;;;;;;;;;;;18.71;56.34;100789.59;5052392;28;19921;-74
2021/05/24 10:11:29;;;;;;;;;;;;;;;18.74;54.40;100775.47;5051915;28;19964;-74
2021/05/24 10:13:55;;;;;;;;;;;;;;;18.82;54.16;100763.59;5034699;28;20334;-73
2021/05/24 10:16:21;;;;;;;;;;;;;;;19.15;53.64;100775.34;5052388;28;20081;-74
2021/05/24 10:18:47;;;;;;;;;;;;;;;18.97;52.67;100770.09;5052688;28;19925;-74
2021/05/24 10:21:13;;;;;;;;;;;;;;;18.73;55.55;100779.25;5052168;28;19921;-74
2021/05/24 10:23:39;;;;;;;;;;;;;;;18.39;55.42;100773.00;5052359;28;20281;-73
2021/05/24 10:26:07;;;;;;;;;;;;;;;18.15;56.07;100764.81;5034444;28;19925;-74
2021/05/24 10:28:34;;;;;;;;;;;;;;;18.14;55.69;100758.44;5051646;28;19921;-68
2021/05/24 10:31:01;;;;;;;;;;;;;;;18.51;55.37;100762.50;5052314;28;19966;-70
2021/05/24 10:33:38;;;;;;;;;;;;;;;18.50;51.26;100747.03;5054293;28;19925;-69
2021/05/24 10:36:14;;;;;;;;;;;;;;;18.75;54.62;100744.22;5052375;28;19932;-70
2021/05/24 10:38:40;;;;;;;;;;;;;;;18.68;52.71;100743.19;5051879;28;19928;-70
2021/05/24 10:41:06;;;;;;;;;;;;;;;18.62;52.40;100735.69;5034140;28;19960;-69
2021/05/24 10:43:44;;;;;;;;;;;;;;;18.52;54.20;100738.59;5055348;28;19925;-71
2021/05/24 10:46:31;;;;;;;;;;;;;;;18.82;52.47;100731.44;5051982;28;19927;-70
2021/05/24 10:48:58;;;;;;;;;;;;;;;19.13;51.16;100722.38;5070579;28;19995;-70
2021/05/24 10:51:38;;;;;;;;;;;;;;;19.82;49.06;100723.47;5063281;28;19946;-71
2021/05/24 10:54:05;;;;;;;;;;;;;;;20.54;47.92;100711.88;5062147;28;19990;-71
2021/05/24 10:56:31;;;;;;;;;;;;;;;20.80;44.69;100705.03;5070333;28;19963;-69
2021/05/24 10:58:57;;;;;;;;;;;;;;;20.68;46.14;100701.03;5062345;28;19921;-74
2021/05/24 11:01:23;;;;;;;;;;;;;;;20.78;43.92;100707.13;5054955;28;19921;-77
2021/05/24 11:04:08;;;;;;;;;;;;;;;21.57;45.19;100692.53;5051212;28;20411;-76
2021/05/24 11:06:33;;;;;;;;;;;;;;;22.42;42.60;100677.88;5067574;28;19960;-73
2021/05/24 11:09:01;;;;;;;;;;;;;;;22.07;42.45;100684.25;5071517;28;20263;-75
2021/05/24 11:11:27;;;;;;;;;;;;;;;22.02;43.96;100686.75;5071214;28;19920;-74
2021/05/24 11:13:57;;;;;;;;;;;;;;;21.14;43.65;100689.72;5071499;28;19971;-76
2021/05/24 11:16:23;;;;;;;;;;;;;;;20.80;44.82;100685.72;5071230;28;19935;-73
2021/05/24 11:18:51;;;;;;;;;;;;;;;21.45;44.49;100684.97;5071721;28;19921;-74